Main page
METAR-TAF:

METAR-TAF

Airports :

Kempegowda International Airport

Bangalore, India

latitude: 13-11-56N, longitude: 077-42-20E, elevation: 915 m

Current weather observation

The report was made 1 hour and 56 minutes ago, at 03:30 UTC
Wind 8 kt from the Northwest
Temperature 23°C
Humidity 73%
Pressure 1015 hPa
Visibility: 8000 m
Few clouds at a height of 1500 ft

METAR: VOBL 250330Z 31008KT 8000 FEW015 23/18 Q1015 NOSIG

Time: 10:56 (05:26 UTC)

Forecast

The report was made 3 hours and 26 minutes ago, at 02:00 UTC
Forecast valid from 25 at 03 UTC to 25 at 12 UTC
Wind 10 kt from the West
Visibility: 6000 m
Scattered clouds at a height of 1200 ft
Temporary
from 25 at 09 UTC to 25 at 12 UTC
Scattered clouds at a height of 1500 ft
Scattered clouds at a height of 2000 ft
Few clouds at a height of 2500 ft, Cumulonimbus.

TAF: VOBL 250200Z 2503/2512 27010KT 6000 SCT012 TEMPO 2509/2512 SCT015 SCT020 FEW025CB

Weather observations and forecasts of more than 4000 airports (METAR and TAF reports).

The available stations are represented by yellow and red dots on the map.

Hover mouse over dot to see the name of the station.

Then click to see weather observations and forecasts.

To change the map : click on the green buttons with a black cross to zoom in, on the green button with a dash to zoom out, or on the green arrows for adjacent maps.


METAR-TAF: